sensor_id;sensor_type;location;lat;lon;timestamp;P1;durP1;ratioP1;P2;durP2;ratioP2
49221;SDS011;35047;37.588;-122.048;2023-09-19T16:39:32;2.33;;;1.65;;
49221;SDS011;35047;37.588;-122.048;2023-09-19T16:41:59;1.83;;;0.93;;
49221;SDS011;35047;37.588;-122.048;2023-09-19T16:44:25;3.67;;;1.47;;
49221;SDS011;35047;37.588;-122.048;2023-09-19T16:46:52;2.77;;;1.50;;
49221;SDS011;35047;37.588;-122.048;2023-09-19T16:49:18;1.77;;;1.33;;
49221;SDS011;35047;37.588;-122.048;2023-09-19T16:51:45;2.90;;;1.42;;
49221;SDS011;35047;37.588;-122.048;2023-09-19T16:54:12;4.43;;;1.52;;
49221;SDS011;35047;37.588;-122.048;2023-09-19T16:59:05;1.65;;;1.13;;
49221;SDS011;35047;37.588;-122.048;2023-09-19T17:01:32;2.27;;;1.33;;
49221;SDS011;35047;37.588;-122.048;2023-09-19T17:03:58;3.53;;;1.58;;
49221;SDS011;35047;37.588;-122.048;2023-09-19T17:06:27;3.25;;;1.50;;
49221;SDS011;35047;37.588;-122.048;2023-09-19T17:08:54;9.35;;;2.33;;
49221;SDS011;35047;37.588;-122.048;2023-09-19T17:11:20;1.58;;;1.00;;
49221;SDS011;35047;37.588;-122.048;2023-09-19T17:13:49;2.15;;;1.52;;
49221;SDS011;35047;37.588;-122.048;2023-09-19T17:16:19;2.63;;;1.30;;
49221;SDS011;35047;37.588;-122.048;2023-09-19T17:18:55;2.58;;;1.40;;
49221;SDS011;35047;37.588;-122.048;2023-09-19T17:21:23;3.90;;;1.60;;
49221;SDS011;35047;37.588;-122.048;2023-09-19T17:23:51;3.58;;;1.77;;
49221;SDS011;35047;37.588;-122.048;2023-09-19T17:26:18;3.38;;;1.83;;
49221;SDS011;35047;37.588;-122.048;2023-09-19T17:28:50;4.80;;;1.23;;
49221;SDS011;35047;37.588;-122.048;2023-09-19T17:31:20;1.85;;;1.52;;
49221;SDS011;35047;37.588;-122.048;2023-09-19T17:33:50;4.80;;;1.88;;
49221;SDS011;35047;37.588;-122.048;2023-09-19T17:36:21;3.63;;;1.42;;
49221;SDS011;35047;37.588;-122.048;2023-09-19T17:38:52;3.25;;;1.60;;
49221;SDS011;35047;37.588;-122.048;2023-09-19T17:41:19;2.35;;;1.17;;
49221;SDS011;35047;37.588;-122.048;2023-09-19T17:43:52;3.95;;;1.52;;
49221;SDS011;35047;37.588;-122.048;2023-09-19T17:46:20;3.55;;;1.73;;
49221;SDS011;35047;37.588;-122.048;2023-09-19T17:48:48;4.78;;;2.17;;
49221;SDS011;35047;37.588;-122.048;2023-09-19T17:51:18;3.85;;;1.88;;
49221;SDS011;35047;37.588;-122.048;2023-09-19T17:53:45;3.75;;;2.10;;
49221;SDS011;35047;37.588;-122.048;2023-09-19T17:56:13;4.28;;;1.90;;
49221;SDS011;35047;37.588;-122.048;2023-09-19T17:58:41;4.20;;;1.85;;
49221;SDS011;35047;37.588;-122.048;2023-09-19T18:01:11;6.40;;;2.15;;
49221;SDS011;35047;37.588;-122.048;2023-09-19T18:03:38;8.82;;;2.20;;
49221;SDS011;35047;37.588;-122.048;2023-09-19T18:06:08;5.00;;;1.88;;
49221;SDS011;35047;37.588;-122.048;2023-09-19T18:08:36;3.75;;;2.58;;
49221;SDS011;35047;37.588;-122.048;2023-09-19T18:11:04;4.50;;;2.60;;
49221;SDS011;35047;37.588;-122.048;2023-09-19T18:13:49;3.40;;;1.67;;
49221;SDS011;35047;37.588;-122.048;2023-09-19T18:16:17;3.45;;;2.15;;
49221;SDS011;35047;37.588;-122.048;2023-09-19T18:18:47;6.32;;;2.50;;
49221;SDS011;35047;37.588;-122.048;2023-09-19T18:21:17;3.35;;;1.95;;
49221;SDS011;35047;37.588;-122.048;2023-09-19T18:23:56;3.72;;;1.95;;
49221;SDS011;35047;37.588;-122.048;2023-09-19T18:26:24;3.55;;;2.17;;
49221;SDS011;35047;37.588;-122.048;2023-09-19T18:28:51;7.32;;;2.05;;
49221;SDS011;35047;37.588;-122.048;2023-09-19T18:31:17;5.85;;;2.88;;
49221;SDS011;35047;37.588;-122.048;2023-09-19T18:33:44;4.68;;;2.50;;
49221;SDS011;35047;37.588;-122.048;2023-09-19T18:36:15;4.32;;;2.63;;
49221;SDS011;35047;37.588;-122.048;2023-09-19T18:41:12;4.97;;;2.78;;
49221;SDS011;35047;37.588;-122.048;2023-09-19T18:43:39;6.32;;;2.95;;
49221;SDS011;35047;37.588;-122.048;2023-09-19T18:46:06;2.63;;;2.42;;
49221;SDS011;35047;37.588;-122.048;2023-09-19T18:48:43;4.10;;;2.65;;
49221;SDS011;35047;37.588;-122.048;2023-09-19T18:51:10;3.78;;;2.55;;
49221;SDS011;35047;37.588;-122.048;2023-09-19T18:53:40;5.00;;;3.22;;
49221;SDS011;35047;37.588;-122.048;2023-09-19T18:56:08;6.43;;;3.15;;
49221;SDS011;35047;37.588;-122.048;2023-09-19T18:58:43;4.78;;;3.20;;
49221;SDS011;35047;37.588;-122.048;2023-09-19T19:01:10;4.97;;;2.40;;
49221;SDS011;35047;37.588;-122.048;2023-09-19T19:03:38;4.05;;;2.60;;
49221;SDS011;35047;37.588;-122.048;2023-09-19T19:06:10;4.65;;;2.70;;
49221;SDS011;35047;37.588;-122.048;2023-09-19T19:08:41;6.10;;;2.60;;
49221;SDS011;35047;37.588;-122.048;2023-09-19T19:11:10;3.67;;;2.65;;
49221;SDS011;35047;37.588;-122.048;2023-09-19T19:13:40;4.40;;;2.90;;
49221;SDS011;35047;37.588;-122.048;2023-09-19T19:16:06;5.60;;;3.30;;
49221;SDS011;35047;37.588;-122.048;2023-09-19T19:18:36;5.72;;;3.28;;
49221;SDS011;35047;37.588;-122.048;2023-09-19T19:21:05;4.50;;;2.55;;
49221;SDS011;35047;37.588;-122.048;2023-09-19T19:23:34;5.25;;;3.05;;
49221;SDS011;35047;37.588;-122.048;2023-09-19T19:26:01;5.78;;;2.65;;
49221;SDS011;35047;37.588;-122.048;2023-09-19T19:28:37;7.14;;;3.03;;
49221;SDS011;35047;37.588;-122.048;2023-09-19T19:31:05;5.03;;;2.53;;
49221;SDS011;35047;37.588;-122.048;2023-09-19T19:33:34;4.68;;;2.75;;
49221;SDS011;35047;37.588;-122.048;2023-09-19T19:36:04;7.68;;;3.72;;
49221;SDS011;35047;37.588;-122.048;2023-09-19T19:38:35;7.80;;;3.25;;
49221;SDS011;35047;37.588;-122.048;2023-09-19T19:41:03;4.57;;;2.72;;
49221;SDS011;35047;37.588;-122.048;2023-09-19T19:43:30;8.15;;;3.00;;
49221;SDS011;35047;37.588;-122.048;2023-09-19T19:45:57;6.68;;;3.00;;
49221;SDS011;35047;37.588;-122.048;2023-09-19T19:48:25;3.47;;;2.65;;
49221;SDS011;35047;37.588;-122.048;2023-09-19T19:50:52;3.95;;;2.08;;
49221;SDS011;35047;37.588;-122.048;2023-09-19T19:53:20;5.78;;;2.85;;
49221;SDS011;35047;37.588;-122.048;2023-09-19T19:55:48;6.47;;;2.47;;
49221;SDS011;35047;37.588;-122.048;2023-09-19T19:58:16;5.18;;;3.53;;
49221;SDS011;35047;37.588;-122.048;2023-09-19T20:00:47;11.43;;;3.92;;
49221;SDS011;35047;37.588;-122.048;2023-09-19T20:03:15;9.02;;;3.92;;
49221;SDS011;35047;37.588;-122.048;2023-09-19T20:05:42;3.60;;;2.00;;
49221;SDS011;35047;37.588;-122.048;2023-09-19T20:08:08;4.50;;;2.90;;
49221;SDS011;35047;37.588;-122.048;2023-09-19T20:10:38;8.52;;;3.00;;
49221;SDS011;35047;37.588;-122.048;2023-09-19T20:13:08;6.53;;;3.03;;
49221;SDS011;35047;37.588;-122.048;2023-09-19T20:15:36;3.85;;;2.60;;
49221;SDS011;35047;37.588;-122.048;2023-09-19T20:18:06;3.95;;;3.08;;
49221;SDS011;35047;37.588;-122.048;2023-09-19T20:20:39;4.88;;;3.38;;
49221;SDS011;35047;37.588;-122.048;2023-09-19T20:23:05;8.65;;;3.92;;
49221;SDS011;35047;37.588;-122.048;2023-09-19T20:25:35;8.88;;;3.80;;
49221;SDS011;35047;37.588;-122.048;2023-09-19T20:28:03;6.45;;;3.13;;
49221;SDS011;35047;37.588;-122.048;2023-09-19T20:30:29;4.50;;;2.75;;
49221;SDS011;35047;37.588;-122.048;2023-09-19T20:32:56;5.50;;;3.30;;
49221;SDS011;35047;37.588;-122.048;2023-09-19T20:35:27;6.70;;;3.78;;
49221;SDS011;35047;37.588;-122.048;2023-09-19T20:37:54;8.23;;;3.50;;
49221;SDS011;35047;37.588;-122.048;2023-09-19T20:40:25;5.55;;;3.47;;
49221;SDS011;35047;37.588;-122.048;2023-09-19T20:45:19;7.10;;;4.57;;
49221;SDS011;35047;37.588;-122.048;2023-09-19T20:52:40;9.37;;;4.87;;
49221;SDS011;35047;37.588;-122.048;2023-09-19T20:57:33;10.23;;;5.57;;
49221;SDS011;35047;37.588;-122.048;2023-09-19T21:00:00;7.28;;;5.18;;
49221;SDS011;35047;37.588;-122.048;2023-09-19T21:02:28;11.13;;;6.10;;
49221;SDS011;35047;37.588;-122.048;2023-09-19T21:07:21;5.82;;;4.20;;
49221;SDS011;35047;37.588;-122.048;2023-09-19T21:09:48;9.77;;;5.25;;
49221;SDS011;35047;37.588;-122.048;2023-09-19T21:12:15;10.57;;;4.90;;
49221;SDS011;35047;37.588;-122.048;2023-09-19T21:14:42;10.32;;;4.43;;
49221;SDS011;35047;37.588;-122.048;2023-09-19T21:17:10;9.30;;;5.45;;
49221;SDS011;35047;37.588;-122.048;2023-09-19T21:19:36;6.43;;;4.10;;
49221;SDS011;35047;37.588;-122.048;2023-09-19T21:22:03;6.80;;;4.10;;
49221;SDS011;35047;37.588;-122.048;2023-09-19T21:26:58;7.70;;;4.35;;
49221;SDS011;35047;37.588;-122.048;2023-09-19T21:29:30;9.50;;;5.55;;
49221;SDS011;35047;37.588;-122.048;2023-09-19T21:31:57;11.20;;;4.55;;
49221;SDS011;35047;37.588;-122.048;2023-09-19T21:34:23;7.22;;;4.05;;
49221;SDS011;35047;37.588;-122.048;2023-09-19T21:36:50;7.93;;;4.45;;
49221;SDS011;35047;37.588;-122.048;2023-09-19T21:39:17;7.50;;;4.00;;
49221;SDS011;35047;37.588;-122.048;2023-09-19T21:41:44;8.88;;;3.95;;
49221;SDS011;35047;37.588;-122.048;2023-09-19T21:44:10;8.48;;;3.50;;
49221;SDS011;35047;37.588;-122.048;2023-09-19T21:46:37;12.40;;;4.65;;
49221;SDS011;35047;37.588;-122.048;2023-09-19T21:49:07;10.25;;;4.78;;
49221;SDS011;35047;37.588;-122.048;2023-09-19T21:51:33;10.85;;;4.80;;
49221;SDS011;35047;37.588;-122.048;2023-09-19T21:54:00;10.07;;;4.22;;
49221;SDS011;35047;37.588;-122.048;2023-09-19T21:56:28;10.73;;;4.47;;
49221;SDS011;35047;37.588;-122.048;2023-09-19T21:58:55;9.27;;;5.38;;
49221;SDS011;35047;37.588;-122.048;2023-09-19T22:01:22;12.45;;;4.30;;
49221;SDS011;35047;37.588;-122.048;2023-09-19T22:03:51;9.35;;;4.25;;
49221;SDS011;35047;37.588;-122.048;2023-09-19T22:06:18;10.93;;;5.18;;
49221;SDS011;35047;37.588;-122.048;2023-09-19T22:08:49;7.90;;;4.22;;
49221;SDS011;35047;37.588;-122.048;2023-09-19T22:11:19;9.63;;;5.15;;
49221;SDS011;35047;37.588;-122.048;2023-09-19T22:13:46;11.90;;;4.57;;
49221;SDS011;35047;37.588;-122.048;2023-09-19T22:16:13;10.50;;;4.78;;
49221;SDS011;35047;37.588;-122.048;2023-09-19T22:18:41;11.70;;;5.50;;
49221;SDS011;35047;37.588;-122.048;2023-09-19T22:21:12;6.80;;;4.30;;
49221;SDS011;35047;37.588;-122.048;2023-09-19T22:23:44;10.43;;;4.85;;
49221;SDS011;35047;37.588;-122.048;2023-09-19T22:26:14;8.50;;;4.35;;
49221;SDS011;35047;37.588;-122.048;2023-09-19T22:28:45;7.10;;;4.57;;
49221;SDS011;35047;37.588;-122.048;2023-09-19T22:31:24;11.77;;;4.70;;
49221;SDS011;35047;37.588;-122.048;2023-09-19T22:33:56;10.30;;;4.35;;
49221;SDS011;35047;37.588;-122.048;2023-09-19T22:36:24;5.85;;;4.25;;
49221;SDS011;35047;37.588;-122.048;2023-09-19T22:39:13;7.80;;;4.22;;
49221;SDS011;35047;37.588;-122.048;2023-09-19T22:41:50;11.13;;;4.85;;
49221;SDS011;35047;37.588;-122.048;2023-09-19T22:44:19;8.77;;;4.65;;
49221;SDS011;35047;37.588;-122.048;2023-09-19T22:46:46;10.25;;;4.68;;
49221;SDS011;35047;37.588;-122.048;2023-09-19T22:49:14;7.40;;;4.05;;
49221;SDS011;35047;37.588;-122.048;2023-09-19T22:51:45;11.93;;;4.93;;
49221;SDS011;35047;37.588;-122.048;2023-09-19T22:54:17;14.43;;;5.30;;
49221;SDS011;35047;37.588;-122.048;2023-09-19T22:56:54;8.30;;;3.97;;
49221;SDS011;35047;37.588;-122.048;2023-09-19T22:59:22;8.70;;;3.85;;
49221;SDS011;35047;37.588;-122.048;2023-09-19T23:01:50;11.13;;;3.95;;
49221;SDS011;35047;37.588;-122.048;2023-09-19T23:04:17;9.10;;;4.38;;
49221;SDS011;35047;37.588;-122.048;2023-09-19T23:06:47;8.48;;;3.78;;
49221;SDS011;35047;37.588;-122.048;2023-09-19T23:09:19;10.35;;;3.85;;
49221;SDS011;35047;37.588;-122.048;2023-09-19T23:11:48;7.65;;;3.42;;
49221;SDS011;35047;37.588;-122.048;2023-09-19T23:14:23;9.10;;;3.80;;
49221;SDS011;35047;37.588;-122.048;2023-09-19T23:17:00;11.37;;;4.93;;
49221;SDS011;35047;37.588;-122.048;2023-09-19T23:19:38;7.23;;;3.57;;
49221;SDS011;35047;37.588;-122.048;2023-09-19T23:22:05;9.48;;;4.55;;
49221;SDS011;35047;37.588;-122.048;2023-09-19T23:24:48;8.15;;;4.57;;
49221;SDS011;35047;37.588;-122.048;2023-09-19T23:27:15;12.88;;;5.18;;
49221;SDS011;35047;37.588;-122.048;2023-09-19T23:29:49;10.63;;;4.97;;
49221;SDS011;35047;37.588;-122.048;2023-09-19T23:32:16;14.55;;;5.40;;
49221;SDS011;35047;37.588;-122.048;2023-09-19T23:34:44;14.27;;;5.32;;
49221;SDS011;35047;37.588;-122.048;2023-09-19T23:37:12;9.80;;;5.20;;
49221;SDS011;35047;37.588;-122.048;2023-09-19T23:42:09;11.40;;;4.88;;
49221;SDS011;35047;37.588;-122.048;2023-09-19T23:44:39;12.50;;;5.07;;
49221;SDS011;35047;37.588;-122.048;2023-09-19T23:47:12;10.60;;;4.65;;
49221;SDS011;35047;37.588;-122.048;2023-09-19T23:49:38;17.17;;;4.28;;
49221;SDS011;35047;37.588;-122.048;2023-09-19T23:52:05;8.88;;;5.10;;
49221;SDS011;35047;37.588;-122.048;2023-09-19T23:54:32;7.88;;;4.20;;
49221;SDS011;35047;37.588;-122.048;2023-09-19T23:57:00;5.82;;;3.67;;
49221;SDS011;35047;37.588;-122.048;2023-09-19T23:59:31;10.32;;;4.47;;
